OPKC/KHI METAR and TAF weather

Enter ICAO airport designator
Station Type Date Time Source
OPKC METAR 2022/09/26 09:00 UTC NOAA

OPKC 260900Z 24008KT 7000 FEW030 33/20 Q1009 NOSIG


Station Type Date Time Source
OPKC Decoded METAR 2022/09/26 09:00 UTC NOAA

Karachi Airport, Pakistan (OPKC) 24-54N 067-08E 22M
Sep 26, 2022 - 05:00 AM EDT / 2022.09.26 0900 UTC
Wind: from the WSW (240 degrees) at 9 MPH (8 KT):0
Visibility: 4 mile(s):0
Sky conditions: mostly clear
Temperature: 91 F (33 C)
Heat index: 94.6 F (34.8 C):1
Dew Point: 68 F (20 C)
Relative Humidity: 46%
Pressure (altimeter): 29.80 in. Hg (1009 hPa)
ob: OPKC 260900Z 24008KT 7000 FEW030 33/20 Q1009 NOSIG
cycle: 9

Station Type Date Time Source
OPKC TAF 2022/09/26 06:03 UTC NOAA

TAF OPKC 260330Z 2606/2712 26010KT 6000 NSC
TEMPO 2623/2703 26008KT 4000 HZ NSC
FM270600 23010KT 6000 NSC

Example: see airport list